• Join FlightAware (Why Join?)
  • Login
  • US Flag 
02:14AM EST


 

Airport Tracker/Info


-or-


 

Live Flight TrackerFlight Track Log ✈ N779NC ✈ 01-Jul-2013 ✈ KGSP - KATL

Flight Track Log - Related Links

Times and Time Zones

All times are in EDT time to prevent confusion due to time zone crossing. See the N779NC flight status page for this flight to view local times or setup timezone preferences in your user account.

Time Position Orientation Groundspeed Altitude Reporting Facility
EDT Latitude Longitude Course Direction KTS MPH feet Rate Location/Type
06:56AM 34.7881 -82.3039 261° West 215 247 4,800  Level Atlanta Center
06:57AM 34.8230 -82.5862 251° West  Level FlightAware Approximate
06:57AM 34.7683 -82.3850 254° West 247 284 7,500  Level Atlanta Center
06:58AM 34.7985 -82.6758 259° West  Level FlightAware Approximate
06:58AM 34.7569 -82.4739 261° West 260 299 10,000  Level Atlanta Center
06:59AM 34.7831 -82.7684 259° West  Level FlightAware Approximate
06:59AM 34.7644 -82.5747 275° West 282 325 12,800  Level Atlanta Center
07:00AM 34.7676 -82.8610 259° West  Level FlightAware Approximate
07:00AM 34.7592 -82.6683 266° West 282 325 15,100  Level Atlanta Center
07:01AM 34.7557 -82.9543 261° West  Level FlightAware Approximate
07:01AM 34.7456 -82.7672 261° West 288 331 17,400  Level Atlanta Center
07:02AM 34.7342 -82.8661 262° West 296 341 19,500 1,260 Climbing Atlanta Center
07:03AM 34.7267 -82.9772 265° West 296 341 20,000 240 Climbing Atlanta Center
07:04AM 34.7089 -83.0811 258° West 304 350 20,000  Level Atlanta Center
07:05AM 34.6992 -83.1847 264° West 310 357 20,000  Level Atlanta Center
07:06AM 34.7019 -83.2808 272° West 320 368 20,000  Level Atlanta Center
07:07AM 34.6647 -83.3619 241° Southwest 282 325 20,000  Level Atlanta Center
07:08AM 34.5731 -83.4056 201° Southwest 307 353 20,000 -60 Level Atlanta Center
07:09AM 34.4858 -83.4794 215° Southwest 358 412 19,900 -720 Descending Atlanta Center
07:10AM 34.4006 -83.5528 215° Southwest 381 438 18,600 -2,100 Descending Atlanta Center
07:11AM 34.3175 -83.6239 215° Southwest 376 433 15,700 -2,220 Descending Atlanta Center
07:12AM 34.2278 -83.7022 216° Southwest 376 433 14,200 -900 Descending Atlanta Center
07:13AM 34.1467 -83.7803 219° Southwest 376 433 14,000 -120 Descending Atlanta Center
07:14AM 34.0800 -83.8783 231° Southwest 371 427 14,000 -720 Level Atlanta Center
07:15AM 34.0133 -83.9686 228° Southwest 369 425 12,600 -1,020 Descending Atlanta Center
07:16AM 33.9444 -84.0589 227° Southwest 363 418 12,000 -300 Descending Atlanta Center
07:17AM 33.8736 -84.1389 223° Southwest 368 423 12,000  Level Atlanta Center
07:18AM 33.8108 -84.2139 225° Southwest 337 388 12,000  Level Atlanta Center
07:19AM 33.7606 -84.2761 226° Southwest 311 358 12,000 -1,020 Level Atlanta Center
07:20AM 33.7375 -84.3686 253° West 286 329 10,000 -1,920 Descending Atlanta Center
07:21AM 33.7333 -84.4833 268° West 274 315 7,700 -1,860 Descending Atlanta TRACON
07:22AM 33.7167 -84.5833 259° West 266 306 5,900 -1,440 Descending Atlanta TRACON
07:23AM 33.7167 -84.6667 270° West 266 306 5,000 -480 Descending Atlanta TRACON
07:24AM 33.7167 -84.7333 270° West 229 264 5,000  Level Atlanta TRACON
07:25AM 33.6667 -84.7500 196° South 231 266 5,000  Level Atlanta TRACON
07:26AM 33.6500 -84.7000 112° Southeast 225 259 5,000 -600 Level Atlanta TRACON
07:27AM 33.6500 -84.6167 90° East 213 245 3,900 -1,140 Descending Atlanta TRACON
07:28AM 33.6500 -84.5667 90° East 205 236 2,900 -1,080 Descending Atlanta TRACON
07:29AM 33.6500 -84.5000 90° East 176 203 1,900 -900 Descending Atlanta TRACON
07:30AM 33.6500 -84.4500 90° East 142 163 1,300 -720 Descending Atlanta TRACON